sensor_id;sensor_type;location;lat;lon;timestamp;P1;durP1;ratioP1;P2;durP2;ratioP2
11957;SDS011;6039;52.576;13.348;2023-01-10T00:04:12;2.70;;;1.77;;
11957;SDS011;6039;52.576;13.348;2023-01-10T00:09:16;2.33;;;1.80;;
11957;SDS011;6039;52.576;13.348;2023-01-10T00:14:19;2.40;;;1.73;;
11957;SDS011;6039;52.576;13.348;2023-01-10T00:19:26;2.63;;;1.63;;
11957;SDS011;6039;52.576;13.348;2023-01-10T00:24:30;3.27;;;1.90;;
11957;SDS011;6039;52.576;13.348;2023-01-10T00:29:34;2.80;;;2.00;;
11957;SDS011;6039;52.576;13.348;2023-01-10T00:34:41;2.57;;;2.10;;
11957;SDS011;6039;52.576;13.348;2023-01-10T00:39:45;2.60;;;1.73;;
11957;SDS011;6039;52.576;13.348;2023-01-10T00:44:49;3.47;;;1.77;;
11957;SDS011;6039;52.576;13.348;2023-01-10T00:49:55;5.30;;;1.90;;
11957;SDS011;6039;52.576;13.348;2023-01-10T00:54:59;5.80;;;2.07;;
11957;SDS011;6039;52.576;13.348;2023-01-10T01:00:04;8.53;;;2.20;;
11957;SDS011;6039;52.576;13.348;2023-01-10T01:05:11;2.60;;;1.80;;
11957;SDS011;6039;52.576;13.348;2023-01-10T01:10:16;3.07;;;1.80;;
11957;SDS011;6039;52.576;13.348;2023-01-10T01:15:29;3.33;;;2.00;;
11957;SDS011;6039;52.576;13.348;2023-01-10T01:20:37;2.63;;;1.93;;
11957;SDS011;6039;52.576;13.348;2023-01-10T01:25:41;3.47;;;1.93;;
11957;SDS011;6039;52.576;13.348;2023-01-10T01:30:45;2.60;;;1.63;;
11957;SDS011;6039;52.576;13.348;2023-01-10T01:35:52;3.13;;;1.80;;
11957;SDS011;6039;52.576;13.348;2023-01-10T01:40:56;3.00;;;1.90;;
11957;SDS011;6039;52.576;13.348;2023-01-10T01:46:00;5.20;;;2.37;;
11957;SDS011;6039;52.576;13.348;2023-01-10T01:51:08;2.40;;;1.70;;
11957;SDS011;6039;52.576;13.348;2023-01-10T01:56:15;3.50;;;1.70;;
11957;SDS011;6039;52.576;13.348;2023-01-10T02:01:21;3.17;;;2.00;;
11957;SDS011;6039;52.576;13.348;2023-01-10T02:06:27;3.00;;;2.00;;
11957;SDS011;6039;52.576;13.348;2023-01-10T02:11:31;4.57;;;1.80;;
11957;SDS011;6039;52.576;13.348;2023-01-10T02:16:35;4.40;;;1.83;;
11957;SDS011;6039;52.576;13.348;2023-01-10T02:21:54;2.47;;;1.93;;
11957;SDS011;6039;52.576;13.348;2023-01-10T02:27:24;3.43;;;2.03;;
11957;SDS011;6039;52.576;13.348;2023-01-10T02:32:37;2.80;;;1.83;;
11957;SDS011;6039;52.576;13.348;2023-01-10T02:37:44;4.13;;;2.20;;
11957;SDS011;6039;52.576;13.348;2023-01-10T02:42:57;4.47;;;2.00;;
11957;SDS011;6039;52.576;13.348;2023-01-10T02:48:06;2.53;;;1.80;;
11957;SDS011;6039;52.576;13.348;2023-01-10T02:53:10;3.23;;;2.10;;
11957;SDS011;6039;52.576;13.348;2023-01-10T02:58:18;2.63;;;1.70;;
11957;SDS011;6039;52.576;13.348;2023-01-10T03:03:32;4.77;;;2.20;;
11957;SDS011;6039;52.576;13.348;2023-01-10T03:08:41;3.20;;;1.90;;
11957;SDS011;6039;52.576;13.348;2023-01-10T03:13:50;3.40;;;2.20;;
11957;SDS011;6039;52.576;13.348;2023-01-10T03:18:59;3.50;;;1.80;;
11957;SDS011;6039;52.576;13.348;2023-01-10T03:24:06;7.50;;;2.37;;
11957;SDS011;6039;52.576;13.348;2023-01-10T03:29:12;4.90;;;2.47;;
11957;SDS011;6039;52.576;13.348;2023-01-10T03:34:23;4.20;;;2.30;;
11957;SDS011;6039;52.576;13.348;2023-01-10T03:39:29;3.80;;;2.00;;
11957;SDS011;6039;52.576;13.348;2023-01-10T03:44:37;5.07;;;1.90;;
11957;SDS011;6039;52.576;13.348;2023-01-10T03:49:52;3.90;;;2.30;;
11957;SDS011;6039;52.576;13.348;2023-01-10T03:54:58;4.37;;;2.60;;
11957;SDS011;6039;52.576;13.348;2023-01-10T04:00:05;3.93;;;2.30;;
11957;SDS011;6039;52.576;13.348;2023-01-10T04:05:12;3.17;;;2.17;;
11957;SDS011;6039;52.576;13.348;2023-01-10T04:10:16;3.87;;;2.60;;
11957;SDS011;6039;52.576;13.348;2023-01-10T04:15:20;3.40;;;2.23;;
11957;SDS011;6039;52.576;13.348;2023-01-10T04:20:27;3.57;;;2.33;;
11957;SDS011;6039;52.576;13.348;2023-01-10T04:25:30;3.97;;;2.57;;
11957;SDS011;6039;52.576;13.348;2023-01-10T04:30:34;4.30;;;2.57;;
11957;SDS011;6039;52.576;13.348;2023-01-10T04:35:41;4.83;;;2.57;;
11957;SDS011;6039;52.576;13.348;2023-01-10T04:40:53;4.67;;;2.47;;
11957;SDS011;6039;52.576;13.348;2023-01-10T04:45:57;7.03;;;2.57;;
11957;SDS011;6039;52.576;13.348;2023-01-10T04:51:04;4.50;;;2.50;;
11957;SDS011;6039;52.576;13.348;2023-01-10T04:56:09;6.43;;;3.10;;
11957;SDS011;6039;52.576;13.348;2023-01-10T05:01:18;4.20;;;2.40;;
11957;SDS011;6039;52.576;13.348;2023-01-10T05:06:26;4.43;;;3.10;;
11957;SDS011;6039;52.576;13.348;2023-01-10T05:11:29;4.40;;;2.80;;
11957;SDS011;6039;52.576;13.348;2023-01-10T05:16:33;6.43;;;2.80;;
11957;SDS011;6039;52.576;13.348;2023-01-10T05:21:40;4.83;;;3.07;;
11957;SDS011;6039;52.576;13.348;2023-01-10T05:26:44;4.13;;;2.90;;
11957;SDS011;6039;52.576;13.348;2023-01-10T05:31:49;8.23;;;3.53;;
11957;SDS011;6039;52.576;13.348;2023-01-10T05:36:56;5.93;;;3.33;;
11957;SDS011;6039;52.576;13.348;2023-01-10T05:42:00;4.97;;;2.90;;
11957;SDS011;6039;52.576;13.348;2023-01-10T05:47:04;4.47;;;2.67;;
11957;SDS011;6039;52.576;13.348;2023-01-10T05:52:11;7.30;;;3.43;;
11957;SDS011;6039;52.576;13.348;2023-01-10T05:57:15;7.33;;;3.40;;
11957;SDS011;6039;52.576;13.348;2023-01-10T06:02:20;7.07;;;3.37;;
11957;SDS011;6039;52.576;13.348;2023-01-10T06:07:28;8.70;;;3.20;;
11957;SDS011;6039;52.576;13.348;2023-01-10T06:12:31;9.33;;;3.97;;
11957;SDS011;6039;52.576;13.348;2023-01-10T06:17:35;5.70;;;3.00;;
11957;SDS011;6039;52.576;13.348;2023-01-10T06:22:42;12.13;;;3.50;;
11957;SDS011;6039;52.576;13.348;2023-01-10T06:27:46;7.17;;;3.40;;
11957;SDS011;6039;52.576;13.348;2023-01-10T06:32:50;7.00;;;3.03;;
11957;SDS011;6039;52.576;13.348;2023-01-10T06:37:57;9.67;;;3.40;;
11957;SDS011;6039;52.576;13.348;2023-01-10T06:43:01;6.80;;;3.40;;
11957;SDS011;6039;52.576;13.348;2023-01-10T06:48:05;5.73;;;3.30;;
11957;SDS011;6039;52.576;13.348;2023-01-10T06:53:11;6.97;;;3.53;;
11957;SDS011;6039;52.576;13.348;2023-01-10T06:58:15;6.93;;;3.50;;
11957;SDS011;6039;52.576;13.348;2023-01-10T07:03:19;7.80;;;3.70;;
11957;SDS011;6039;52.576;13.348;2023-01-10T07:08:26;6.30;;;3.40;;
11957;SDS011;6039;52.576;13.348;2023-01-10T07:13:30;7.53;;;3.33;;
11957;SDS011;6039;52.576;13.348;2023-01-10T07:18:34;9.10;;;3.57;;
11957;SDS011;6039;52.576;13.348;2023-01-10T07:23:41;7.27;;;3.47;;
11957;SDS011;6039;52.576;13.348;2023-01-10T07:28:46;5.97;;;3.60;;
11957;SDS011;6039;52.576;13.348;2023-01-10T07:33:52;9.00;;;4.77;;
11957;SDS011;6039;52.576;13.348;2023-01-10T07:38:58;6.93;;;3.43;;
11957;SDS011;6039;52.576;13.348;2023-01-10T07:44:02;10.43;;;4.03;;
11957;SDS011;6039;52.576;13.348;2023-01-10T07:49:06;6.03;;;3.70;;
11957;SDS011;6039;52.576;13.348;2023-01-10T07:54:13;8.40;;;3.53;;
11957;SDS011;6039;52.576;13.348;2023-01-10T07:59:17;7.63;;;3.90;;
11957;SDS011;6039;52.576;13.348;2023-01-10T08:04:21;9.03;;;4.50;;
11957;SDS011;6039;52.576;13.348;2023-01-10T08:09:27;7.10;;;4.17;;
11957;SDS011;6039;52.576;13.348;2023-01-10T08:14:31;7.97;;;4.23;;
11957;SDS011;6039;52.576;13.348;2023-01-10T08:19:35;10.87;;;4.37;;
11957;SDS011;6039;52.576;13.348;2023-01-10T08:24:42;8.53;;;4.67;;
11957;SDS011;6039;52.576;13.348;2023-01-10T08:29:46;12.33;;;4.30;;
11957;SDS011;6039;52.576;13.348;2023-01-10T08:34:50;7.73;;;4.63;;
11957;SDS011;6039;52.576;13.348;2023-01-10T08:39:56;12.50;;;4.37;;
11957;SDS011;6039;52.576;13.348;2023-01-10T08:45:00;9.97;;;5.13;;
11957;SDS011;6039;52.576;13.348;2023-01-10T08:50:04;11.13;;;4.13;;
11957;SDS011;6039;52.576;13.348;2023-01-10T08:55:12;7.43;;;4.40;;
11957;SDS011;6039;52.576;13.348;2023-01-10T09:00:16;10.60;;;4.17;;
11957;SDS011;6039;52.576;13.348;2023-01-10T09:05:21;6.33;;;3.63;;
11957;SDS011;6039;52.576;13.348;2023-01-10T09:10:27;15.47;;;4.27;;
11957;SDS011;6039;52.576;13.348;2023-01-10T09:15:32;5.97;;;3.63;;
11957;SDS011;6039;52.576;13.348;2023-01-10T09:20:38;8.23;;;3.70;;
11957;SDS011;6039;52.576;13.348;2023-01-10T09:25:47;6.93;;;4.03;;
11957;SDS011;6039;52.576;13.348;2023-01-10T09:30:52;6.03;;;3.40;;
11957;SDS011;6039;52.576;13.348;2023-01-10T09:35:56;5.63;;;3.43;;
11957;SDS011;6039;52.576;13.348;2023-01-10T09:41:05;7.30;;;3.60;;
11957;SDS011;6039;52.576;13.348;2023-01-10T09:46:20;10.37;;;3.73;;
11957;SDS011;6039;52.576;13.348;2023-01-10T09:51:31;8.23;;;3.67;;
11957;SDS011;6039;52.576;13.348;2023-01-10T09:56:41;5.37;;;3.27;;
11957;SDS011;6039;52.576;13.348;2023-01-10T10:01:45;5.70;;;3.07;;
11957;SDS011;6039;52.576;13.348;2023-01-10T10:06:50;8.03;;;3.60;;
11957;SDS011;6039;52.576;13.348;2023-01-10T10:12:02;5.20;;;3.30;;
11957;SDS011;6039;52.576;13.348;2023-01-10T10:17:18;6.60;;;3.40;;
11957;SDS011;6039;52.576;13.348;2023-01-10T10:22:36;6.33;;;3.07;;
11957;SDS011;6039;52.576;13.348;2023-01-10T10:27:52;9.00;;;3.60;;
11957;SDS011;6039;52.576;13.348;2023-01-10T10:33:05;7.33;;;3.80;;
11957;SDS011;6039;52.576;13.348;2023-01-10T10:38:28;7.83;;;3.07;;
11957;SDS011;6039;52.576;13.348;2023-01-10T10:43:38;5.20;;;3.33;;
11957;SDS011;6039;52.576;13.348;2023-01-10T10:48:45;7.10;;;2.63;;
11957;SDS011;6039;52.576;13.348;2023-01-10T10:53:52;6.40;;;3.00;;
11957;SDS011;6039;52.576;13.348;2023-01-10T10:58:59;6.87;;;2.40;;
11957;SDS011;6039;52.576;13.348;2023-01-10T11:04:04;5.73;;;2.70;;
11957;SDS011;6039;52.576;13.348;2023-01-10T11:09:13;4.83;;;2.37;;
11957;SDS011;6039;52.576;13.348;2023-01-10T11:19:53;5.43;;;2.40;;
11957;SDS011;6039;52.576;13.348;2023-01-10T11:24:59;3.73;;;2.40;;
11957;SDS011;6039;52.576;13.348;2023-01-10T11:30:07;6.33;;;2.90;;
11957;SDS011;6039;52.576;13.348;2023-01-10T11:35:19;6.67;;;2.33;;
11957;SDS011;6039;52.576;13.348;2023-01-10T11:40:26;7.50;;;2.47;;
11957;SDS011;6039;52.576;13.348;2023-01-10T11:45:33;6.30;;;2.60;;
11957;SDS011;6039;52.576;13.348;2023-01-10T11:50:38;4.30;;;2.27;;
11957;SDS011;6039;52.576;13.348;2023-01-10T11:55:45;4.47;;;2.60;;
11957;SDS011;6039;52.576;13.348;2023-01-10T12:00:53;5.10;;;2.50;;
11957;SDS011;6039;52.576;13.348;2023-01-10T12:05:57;3.40;;;2.50;;
11957;SDS011;6039;52.576;13.348;2023-01-10T12:11:03;3.73;;;2.50;;
11957;SDS011;6039;52.576;13.348;2023-01-10T12:16:20;4.10;;;2.07;;
11957;SDS011;6039;52.576;13.348;2023-01-10T12:21:27;9.43;;;2.83;;
11957;SDS011;6039;52.576;13.348;2023-01-10T12:26:33;3.07;;;2.20;;
11957;SDS011;6039;52.576;13.348;2023-01-10T12:31:40;4.60;;;1.93;;
11957;SDS011;6039;52.576;13.348;2023-01-10T12:36:49;5.37;;;2.23;;
11957;SDS011;6039;52.576;13.348;2023-01-10T12:47:41;4.50;;;1.70;;
11957;SDS011;6039;52.576;13.348;2023-01-10T12:52:56;4.63;;;1.93;;
11957;SDS011;6039;52.576;13.348;2023-01-10T12:58:03;6.10;;;2.23;;
11957;SDS011;6039;52.576;13.348;2023-01-10T13:03:11;2.07;;;1.70;;
11957;SDS011;6039;52.576;13.348;2023-01-10T13:08:17;5.47;;;2.40;;
11957;SDS011;6039;52.576;13.348;2023-01-10T13:13:25;6.40;;;1.87;;
11957;SDS011;6039;52.576;13.348;2023-01-10T13:18:37;3.17;;;1.80;;
11957;SDS011;6039;52.576;13.348;2023-01-10T13:24:01;6.27;;;1.90;;
11957;SDS011;6039;52.576;13.348;2023-01-10T13:29:08;4.03;;;2.20;;
11957;SDS011;6039;52.576;13.348;2023-01-10T13:34:16;4.50;;;2.20;;
11957;SDS011;6039;52.576;13.348;2023-01-10T13:39:23;6.73;;;2.17;;
11957;SDS011;6039;52.576;13.348;2023-01-10T13:44:29;4.87;;;1.90;;
11957;SDS011;6039;52.576;13.348;2023-01-10T13:55:53;6.50;;;2.57;;
11957;SDS011;6039;52.576;13.348;2023-01-10T14:00:58;5.63;;;2.10;;
11957;SDS011;6039;52.576;13.348;2023-01-10T14:06:36;9.87;;;2.17;;
11957;SDS011;6039;52.576;13.348;2023-01-10T14:11:50;3.73;;;2.30;;
11957;SDS011;6039;52.576;13.348;2023-01-10T14:16:55;6.23;;;2.60;;
11957;SDS011;6039;52.576;13.348;2023-01-10T14:22:01;6.93;;;2.20;;
11957;SDS011;6039;52.576;13.348;2023-01-10T14:27:11;5.30;;;2.30;;
11957;SDS011;6039;52.576;13.348;2023-01-10T14:32:18;5.77;;;2.77;;
11957;SDS011;6039;52.576;13.348;2023-01-10T14:37:30;6.23;;;2.43;;
11957;SDS011;6039;52.576;13.348;2023-01-10T14:42:40;4.80;;;2.50;;
11957;SDS011;6039;52.576;13.348;2023-01-10T14:47:44;4.80;;;2.80;;
11957;SDS011;6039;52.576;13.348;2023-01-10T14:52:48;4.17;;;2.70;;
11957;SDS011;6039;52.576;13.348;2023-01-10T14:57:56;8.27;;;3.10;;
11957;SDS011;6039;52.576;13.348;2023-01-10T15:03:00;6.53;;;3.10;;
11957;SDS011;6039;52.576;13.348;2023-01-10T15:08:15;6.20;;;2.60;;
11957;SDS011;6039;52.576;13.348;2023-01-10T15:13:25;6.03;;;3.33;;
11957;SDS011;6039;52.576;13.348;2023-01-10T15:18:36;3.50;;;2.70;;
11957;SDS011;6039;52.576;13.348;2023-01-10T15:23:43;6.67;;;3.13;;
11957;SDS011;6039;52.576;13.348;2023-01-10T15:29:01;6.10;;;3.07;;
11957;SDS011;6039;52.576;13.348;2023-01-10T15:34:09;11.60;;;3.30;;
11957;SDS011;6039;52.576;13.348;2023-01-10T15:39:17;4.80;;;2.77;;
11957;SDS011;6039;52.576;13.348;2023-01-10T15:44:31;8.03;;;3.33;;
11957;SDS011;6039;52.576;13.348;2023-01-10T15:49:37;9.73;;;2.63;;
11957;SDS011;6039;52.576;13.348;2023-01-10T15:54:41;6.20;;;2.67;;
11957;SDS011;6039;52.576;13.348;2023-01-10T15:59:47;4.20;;;2.80;;
11957;SDS011;6039;52.576;13.348;2023-01-10T16:04:54;7.33;;;3.10;;
11957;SDS011;6039;52.576;13.348;2023-01-10T16:09:59;11.07;;;2.93;;
11957;SDS011;6039;52.576;13.348;2023-01-10T16:15:12;5.77;;;2.77;;
11957;SDS011;6039;52.576;13.348;2023-01-10T16:20:19;9.07;;;3.10;;
11957;SDS011;6039;52.576;13.348;2023-01-10T16:25:25;7.37;;;2.60;;
11957;SDS011;6039;52.576;13.348;2023-01-10T16:30:33;6.97;;;2.40;;
11957;SDS011;6039;52.576;13.348;2023-01-10T16:35:41;5.30;;;2.40;;
11957;SDS011;6039;52.576;13.348;2023-01-10T16:40:47;5.33;;;2.70;;
11957;SDS011;6039;52.576;13.348;2023-01-10T16:45:57;6.50;;;2.70;;
11957;SDS011;6039;52.576;13.348;2023-01-10T16:51:03;3.97;;;2.33;;
11957;SDS011;6039;52.576;13.348;2023-01-10T16:56:15;4.93;;;2.17;;
11957;SDS011;6039;52.576;13.348;2023-01-10T17:01:23;7.20;;;2.70;;
11957;SDS011;6039;52.576;13.348;2023-01-10T17:06:29;4.20;;;2.13;;
11957;SDS011;6039;52.576;13.348;2023-01-10T17:11:35;5.23;;;2.00;;
11957;SDS011;6039;52.576;13.348;2023-01-10T17:16:44;5.00;;;2.50;;
11957;SDS011;6039;52.576;13.348;2023-01-10T17:21:48;6.30;;;2.60;;
11957;SDS011;6039;52.576;13.348;2023-01-10T17:26:52;10.03;;;2.60;;
11957;SDS011;6039;52.576;13.348;2023-01-10T17:31:59;4.30;;;2.27;;
11957;SDS011;6039;52.576;13.348;2023-01-10T17:37:03;4.63;;;2.20;;
11957;SDS011;6039;52.576;13.348;2023-01-10T17:42:07;4.60;;;2.10;;
11957;SDS011;6039;52.576;13.348;2023-01-10T17:47:14;3.83;;;2.30;;
11957;SDS011;6039;52.576;13.348;2023-01-10T17:52:18;3.97;;;2.20;;
11957;SDS011;6039;52.576;13.348;2023-01-10T17:57:22;3.33;;;2.23;;
11957;SDS011;6039;52.576;13.348;2023-01-10T18:02:29;6.10;;;2.10;;
11957;SDS011;6039;52.576;13.348;2023-01-10T18:07:33;4.07;;;2.43;;
11957;SDS011;6039;52.576;13.348;2023-01-10T18:12:37;4.37;;;2.40;;
11957;SDS011;6039;52.576;13.348;2023-01-10T18:17:43;6.50;;;2.40;;
11957;SDS011;6039;52.576;13.348;2023-01-10T18:22:47;6.17;;;3.00;;
11957;SDS011;6039;52.576;13.348;2023-01-10T18:28:13;6.73;;;3.03;;
11957;SDS011;6039;52.576;13.348;2023-01-10T18:33:19;6.43;;;2.63;;
11957;SDS011;6039;52.576;13.348;2023-01-10T18:38:24;6.23;;;2.73;;
11957;SDS011;6039;52.576;13.348;2023-01-10T18:43:28;4.23;;;2.73;;
11957;SDS011;6039;52.576;13.348;2023-01-10T18:48:34;5.47;;;2.63;;
11957;SDS011;6039;52.576;13.348;2023-01-10T18:53:38;5.67;;;2.43;;
11957;SDS011;6039;52.576;13.348;2023-01-10T18:58:43;4.00;;;2.60;;
11957;SDS011;6039;52.576;13.348;2023-01-10T19:03:49;4.33;;;2.70;;
11957;SDS011;6039;52.576;13.348;2023-01-10T19:08:53;5.97;;;2.73;;
11957;SDS011;6039;52.576;13.348;2023-01-10T19:13:57;5.93;;;2.63;;
11957;SDS011;6039;52.576;13.348;2023-01-10T19:19:05;5.60;;;2.87;;
11957;SDS011;6039;52.576;13.348;2023-01-10T19:24:14;4.60;;;2.23;;
11957;SDS011;6039;52.576;13.348;2023-01-10T19:29:23;5.13;;;2.20;;
11957;SDS011;6039;52.576;13.348;2023-01-10T19:34:32;6.50;;;2.73;;
11957;SDS011;6039;52.576;13.348;2023-01-10T19:39:36;4.17;;;2.53;;
11957;SDS011;6039;52.576;13.348;2023-01-10T19:44:44;5.73;;;2.70;;
11957;SDS011;6039;52.576;13.348;2023-01-10T19:49:50;4.80;;;2.60;;
11957;SDS011;6039;52.576;13.348;2023-01-10T19:54:54;6.03;;;2.20;;
11957;SDS011;6039;52.576;13.348;2023-01-10T19:59:58;3.67;;;2.13;;
11957;SDS011;6039;52.576;13.348;2023-01-10T20:05:06;3.87;;;2.40;;
11957;SDS011;6039;52.576;13.348;2023-01-10T20:10:11;5.33;;;2.20;;
11957;SDS011;6039;52.576;13.348;2023-01-10T20:15:18;3.90;;;2.30;;
11957;SDS011;6039;52.576;13.348;2023-01-10T20:20:24;3.73;;;2.23;;
11957;SDS011;6039;52.576;13.348;2023-01-10T20:25:29;4.27;;;2.57;;
11957;SDS011;6039;52.576;13.348;2023-01-10T20:30:34;5.37;;;2.30;;
11957;SDS011;6039;52.576;13.348;2023-01-10T20:35:41;6.27;;;2.10;;
11957;SDS011;6039;52.576;13.348;2023-01-10T20:40:45;5.00;;;2.70;;
11957;SDS011;6039;52.576;13.348;2023-01-10T20:45:49;3.90;;;2.10;;
11957;SDS011;6039;52.576;13.348;2023-01-10T20:50:58;4.00;;;2.30;;
11957;SDS011;6039;52.576;13.348;2023-01-10T20:56:02;3.03;;;1.87;;
11957;SDS011;6039;52.576;13.348;2023-01-10T21:01:08;3.03;;;1.93;;
11957;SDS011;6039;52.576;13.348;2023-01-10T21:06:16;3.87;;;2.17;;
11957;SDS011;6039;52.576;13.348;2023-01-10T21:11:21;7.97;;;2.47;;
11957;SDS011;6039;52.576;13.348;2023-01-10T21:16:25;5.80;;;2.23;;
11957;SDS011;6039;52.576;13.348;2023-01-10T21:21:32;5.13;;;2.60;;
11957;SDS011;6039;52.576;13.348;2023-01-10T21:26:37;5.63;;;2.37;;
11957;SDS011;6039;52.576;13.348;2023-01-10T21:31:41;7.37;;;2.67;;
11957;SDS011;6039;52.576;13.348;2023-01-10T21:36:48;4.33;;;2.40;;
11957;SDS011;6039;52.576;13.348;2023-01-10T21:41:53;6.53;;;2.33;;
11957;SDS011;6039;52.576;13.348;2023-01-10T21:47:09;5.47;;;2.10;;
11957;SDS011;6039;52.576;13.348;2023-01-10T21:52:16;6.30;;;2.23;;
11957;SDS011;6039;52.576;13.348;2023-01-10T21:57:20;5.30;;;2.43;;
11957;SDS011;6039;52.576;13.348;2023-01-10T22:02:25;2.77;;;1.70;;
11957;SDS011;6039;52.576;13.348;2023-01-10T22:07:33;4.60;;;2.47;;
11957;SDS011;6039;52.576;13.348;2023-01-10T22:12:37;6.47;;;2.10;;
11957;SDS011;6039;52.576;13.348;2023-01-10T22:17:41;4.20;;;2.13;;
11957;SDS011;6039;52.576;13.348;2023-01-10T22:22:49;3.80;;;2.27;;
11957;SDS011;6039;52.576;13.348;2023-01-10T22:27:54;8.33;;;2.37;;
11957;SDS011;6039;52.576;13.348;2023-01-10T22:32:58;4.13;;;1.87;;
11957;SDS011;6039;52.576;13.348;2023-01-10T22:38:05;3.77;;;1.93;;
11957;SDS011;6039;52.576;13.348;2023-01-10T22:43:09;8.63;;;2.13;;
11957;SDS011;6039;52.576;13.348;2023-01-10T22:48:13;3.67;;;2.20;;
11957;SDS011;6039;52.576;13.348;2023-01-10T22:53:19;7.10;;;1.83;;
11957;SDS011;6039;52.576;13.348;2023-01-10T22:58:24;5.10;;;2.03;;
11957;SDS011;6039;52.576;13.348;2023-01-10T23:03:28;6.63;;;2.00;;
11957;SDS011;6039;52.576;13.348;2023-01-10T23:08:34;2.10;;;1.60;;
11957;SDS011;6039;52.576;13.348;2023-01-10T23:13:40;4.07;;;1.80;;
11957;SDS011;6039;52.576;13.348;2023-01-10T23:18:44;3.20;;;1.87;;
11957;SDS011;6039;52.576;13.348;2023-01-10T23:23:53;2.30;;;1.60;;
11957;SDS011;6039;52.576;13.348;2023-01-10T23:28:57;2.57;;;1.70;;
11957;SDS011;6039;52.576;13.348;2023-01-10T23:34:01;5.40;;;2.33;;
11957;SDS011;6039;52.576;13.348;2023-01-10T23:39:07;6.63;;;1.97;;
11957;SDS011;6039;52.576;13.348;2023-01-10T23:44:11;5.13;;;1.70;;
11957;SDS011;6039;52.576;13.348;2023-01-10T23:49:15;6.20;;;2.10;;
11957;SDS011;6039;52.576;13.348;2023-01-10T23:54:22;4.03;;;1.80;;
11957;SDS011;6039;52.576;13.348;2023-01-10T23:59:26;5.40;;;1.60;;
